Main page
METAR-TAF:

METAR-TAF

Airports :

Aomori Airport

Aomori, Japan

latitude: 40-44N, longitude: 140-42E, elevation: 199 m

Current weather observation

The report was made 44 minutes ago, at 01:00 UTC
Wind 7 kt from the South
Temperature 5°C
Humidity 70%
Pressure 1028 hPa
Visibility 10 km or more
Few clouds at a height of 2000 ft
Broken clouds at a height of 3500 ft

METAR: RJSA 060100Z 17007KT 9999 FEW020 BKN035 05/00 Q1028

Time: 10:44 (01:44 UTC)

Forecast

The report was made 2 hours and 39 minutes ago, at 23:05 UTC
Forecast valid from 06 at 00 UTC to 07 at 06 UTC
Wind 7 kt from the South/Southwest
Visibility 10 km or more
Few clouds at a height of 2000 ft
Broken clouds at a height of 4000 ft
Becoming
from 07 at 00 UTC to 07 at 03 UTC
Wind 7 kt from the Northeast

TAF: RJSA 052305Z 0600/0706 21007KT 9999 FEW020 BKN040 BECMG 0700/0703 04007KT

Weather observations and forecasts of more than 4000 airports (METAR and TAF reports).

The available stations are represented by yellow and red dots on the map.

Hover mouse over dot to see the name of the station.

Then click to see weather observations and forecasts.

To change the map : click on the green buttons with a black cross to zoom in, on the green button with a dash to zoom out, or on the green arrows for adjacent maps.


METAR-TAF: